createdAt,value
2023-02-13T00:05:27.145Z,4.10
2023-02-13T00:08:18.402Z,4.10
2023-02-13T00:13:59.580Z,4.10
2023-02-13T00:16:52.256Z,4.10
2023-02-13T00:19:43.735Z,4.00
2023-02-13T00:22:38.907Z,4.00
2023-02-13T00:25:31.891Z,4.00
2023-02-13T00:28:23.396Z,3.90
2023-02-13T00:33:56.753Z,3.90
2023-02-13T00:52:41.853Z,4.00
2023-02-13T00:55:35.416Z,4.00
2023-02-13T00:58:27.712Z,3.90
2023-02-13T01:01:19.108Z,3.80
2023-02-13T01:04:10.411Z,3.70
2023-02-13T01:10:20.067Z,3.60
2023-02-13T01:13:15.931Z,3.60
2023-02-13T01:18:49.516Z,3.60
2023-02-13T01:21:40.985Z,3.60
2023-02-13T01:24:34.397Z,3.50
2023-02-13T01:27:25.830Z,3.50
2023-02-13T01:30:20.849Z,3.40
2023-02-13T01:39:59.364Z,3.50
2023-02-13T01:42:50.698Z,3.40
2023-02-13T01:49:00.282Z,3.50
2023-02-13T01:54:38.854Z,3.60
2023-02-13T01:57:33.092Z,3.50
2023-02-13T02:00:26.188Z,3.40
2023-02-13T02:06:08.858Z,3.20
2023-02-13T02:09:03.303Z,3.20
2023-02-13T02:11:58.899Z,3.20
2023-02-13T02:14:50.854Z,3.10
2023-02-13T02:20:34.258Z,3.10
2023-02-13T02:27:10.816Z,3.00
2023-02-13T02:30:38.867Z,2.90
2023-02-13T02:33:36.982Z,2.90
2023-02-13T02:36:36.840Z,2.80
2023-02-13T02:42:18.334Z,2.80
2023-02-13T02:45:14.256Z,2.90
2023-02-13T02:48:26.902Z,2.80
2023-02-13T03:08:53.332Z,2.80
2023-02-13T03:14:29.998Z,2.80
2023-02-13T03:17:39.455Z,2.80
2023-02-13T03:20:57.795Z,2.80
2023-02-13T03:26:50.842Z,2.80
2023-02-13T03:30:05.431Z,2.80
2023-02-13T03:33:03.795Z,2.70
2023-02-13T03:38:48.869Z,2.60
2023-02-13T03:57:45.564Z,2.40
2023-02-13T04:03:35.045Z,2.40
2023-02-13T04:06:30.079Z,2.40
2023-02-13T04:09:21.605Z,2.40
2023-02-13T04:15:45.191Z,2.40
2023-02-13T04:18:34.517Z,2.50
2023-02-13T04:21:26.202Z,2.50
2023-02-13T04:24:26.427Z,2.50
2023-02-13T04:27:19.072Z,2.50
2023-02-13T04:30:12.885Z,2.50
2023-02-13T04:33:04.146Z,2.40
2023-02-13T04:39:38.446Z,2.30
2023-02-13T04:42:29.771Z,2.20
2023-02-13T04:45:21.577Z,2.20
2023-02-13T04:48:12.920Z,2.20
2023-02-13T04:51:04.419Z,2.10
2023-02-13T04:56:41.757Z,2.00
2023-02-13T04:59:33.050Z,2.00
2023-02-13T05:02:24.742Z,2.10
2023-02-13T05:05:16.534Z,2.10
2023-02-13T05:08:09.640Z,2.10
2023-02-13T05:16:25.267Z,2.20
2023-02-13T05:19:16.710Z,2.20
2023-02-13T05:24:49.449Z,2.20
2023-02-13T05:27:41.055Z,2.30
2023-02-13T05:30:32.691Z,2.30
2023-02-13T05:33:24.080Z,2.30
2023-02-13T05:36:15.717Z,2.30
2023-02-13T05:42:00.718Z,2.30
2023-02-13T05:44:52.157Z,2.30
2023-02-13T05:47:43.638Z,2.30
2023-02-13T05:50:35.057Z,2.20
2023-02-13T05:53:26.590Z,2.10
2023-02-13T05:56:17.898Z,2.10
2023-02-13T05:59:09.989Z,2.10
2023-02-13T06:02:01.313Z,2.10
2023-02-13T06:04:52.937Z,2.10
2023-02-13T06:07:44.270Z,2.10
2023-02-13T06:10:35.573Z,2.10
2023-02-13T06:13:27.562Z,2.10
2023-02-13T06:19:01.833Z,2.00
2023-02-13T06:21:53.519Z,2.10
2023-02-13T06:27:34.383Z,2.10
2023-02-13T06:30:26.906Z,2.10
2023-02-13T06:33:18.374Z,2.10
2023-02-13T06:39:02.290Z,2.10
2023-02-13T06:44:44.125Z,2.00
2023-02-13T06:47:35.966Z,2.00
2023-02-13T06:50:27.803Z,2.10
2023-02-13T06:56:17.045Z,2.00
2023-02-13T06:59:08.714Z,2.00
2023-02-13T07:04:51.752Z,2.10
2023-02-13T07:10:31.121Z,2.00
2023-02-13T07:13:21.933Z,2.00
2023-02-13T07:19:33.431Z,2.20
2023-02-13T07:25:06.035Z,2.30
2023-02-13T07:27:57.722Z,2.20
2023-02-13T07:33:28.555Z,2.20
2023-02-13T07:39:08.284Z,2.20
2023-02-13T07:44:45.632Z,2.40
2023-02-13T07:47:37.245Z,2.40
2023-02-13T07:53:09.242Z,2.40
2023-02-13T07:59:14.042Z,2.50
2023-02-13T08:15:30.507Z,2.50
2023-02-13T08:35:12.762Z,3.30
2023-02-13T08:38:06.384Z,3.40
2023-02-13T08:41:04.903Z,3.50
2023-02-13T08:43:57.193Z,3.60
2023-02-13T08:46:48.624Z,3.70
2023-02-13T08:49:42.948Z,3.70
2023-02-13T08:52:35.691Z,3.80
2023-02-13T08:55:31.831Z,3.90
2023-02-13T08:58:26.694Z,4.00
2023-02-13T09:01:18.702Z,4.10
2023-02-13T09:04:10.630Z,4.10
2023-02-13T09:07:03.713Z,4.20
2023-02-13T09:09:55.963Z,4.20
2023-02-13T09:12:56.873Z,4.40
2023-02-13T09:15:48.130Z,4.40
2023-02-13T09:21:29.957Z,4.60
2023-02-13T09:24:24.273Z,4.70
2023-02-13T09:27:17.690Z,4.80
2023-02-13T09:30:11.928Z,4.90
2023-02-13T09:49:26.000Z,5.30
2023-02-13T09:54:58.237Z,5.60
2023-02-13T10:00:45.037Z,5.70
2023-02-13T10:06:31.926Z,5.90
2023-02-13T10:09:31.172Z,6.00
2023-02-13T10:15:25.538Z,6.30
2023-02-13T10:18:21.171Z,6.50
2023-02-13T10:21:18.851Z,6.60
2023-02-13T10:24:14.776Z,6.60
2023-02-13T10:30:09.784Z,6.70
2023-02-13T10:50:56.346Z,7.50
2023-02-13T10:53:52.400Z,7.70
2023-02-13T10:56:49.060Z,7.80
2023-02-13T10:59:59.636Z,7.80
2023-02-13T11:02:51.729Z,7.90
2023-02-13T11:05:44.802Z,8.10
2023-02-13T11:08:38.552Z,8.20
2023-02-13T11:11:34.856Z,8.30
2023-02-13T11:14:28.322Z,8.30
2023-02-13T11:17:21.161Z,8.40
2023-02-13T11:20:33.737Z,8.50
2023-02-13T11:23:42.245Z,8.60
2023-02-13T11:26:36.821Z,8.60
2023-02-13T11:32:49.381Z,8.90
2023-02-13T11:35:41.831Z,9.00
2023-02-13T11:38:33.657Z,9.10
2023-02-13T11:41:28.366Z,9.20
2023-02-13T11:50:26.991Z,9.50
2023-02-13T11:53:23.900Z,9.70
2023-02-13T11:59:35.491Z,9.80
2023-02-13T12:02:28.443Z,9.80
2023-02-13T12:05:22.200Z,9.90
2023-02-13T12:08:14.231Z,10.00
2023-02-13T12:11:09.788Z,10.10
2023-02-13T12:14:01.686Z,10.10
2023-02-13T12:19:38.005Z,10.20
2023-02-13T12:22:36.206Z,10.30
2023-02-13T12:35:45.974Z,10.50
2023-02-13T12:38:55.328Z,10.60
2023-02-13T12:41:55.288Z,10.60
2023-02-13T12:48:07.311Z,10.80
2023-02-13T12:54:03.010Z,11.00
2023-02-13T12:57:11.543Z,11.10
2023-02-13T13:00:18.802Z,11.20
2023-02-13T13:03:27.674Z,11.30
2023-02-13T13:06:46.242Z,11.30
2023-02-13T13:13:42.672Z,11.60
2023-02-13T13:16:40.782Z,11.60
2023-02-13T13:25:07.458Z,11.80
2023-02-13T13:28:03.429Z,11.90
2023-02-13T13:33:38.512Z,12.10
2023-02-13T13:36:37.708Z,12.10
2023-02-13T13:44:02.870Z,12.20
2023-02-13T13:49:42.263Z,12.40
2023-02-13T13:52:37.655Z,12.40
2023-02-13T13:56:20.498Z,12.40
2023-02-13T14:02:53.576Z,12.50
2023-02-13T14:09:42.322Z,12.70
2023-02-13T14:12:46.020Z,12.90
2023-02-13T14:15:56.059Z,13.00
2023-02-13T14:21:34.626Z,12.90
2023-02-13T14:24:27.596Z,13.00
2023-02-13T14:27:26.123Z,13.10
2023-02-13T14:30:31.709Z,13.10
2023-02-13T14:33:30.185Z,13.00
2023-02-13T14:36:28.871Z,13.10
2023-02-13T14:39:27.882Z,13.10
2023-02-13T14:42:28.221Z,13.10
2023-02-13T14:45:23.480Z,13.10
2023-02-13T14:48:17.176Z,13.20
2023-02-13T14:51:11.813Z,13.30
2023-02-13T14:54:10.666Z,13.30
2023-02-13T14:57:11.527Z,13.30
2023-02-13T15:00:07.489Z,13.30
2023-02-13T15:03:02.540Z,13.30
2023-02-13T15:05:57.150Z,13.30
2023-02-13T15:08:52.139Z,13.30
2023-02-13T15:11:45.612Z,13.30
2023-02-13T15:14:38.664Z,13.30
2023-02-13T15:20:27.540Z,13.40
2023-02-13T15:23:23.273Z,13.40
2023-02-13T15:26:24.266Z,13.40
2023-02-13T15:29:29.259Z,13.40
2023-02-13T15:32:27.418Z,13.40
2023-02-13T15:35:26.048Z,13.50
2023-02-13T15:38:28.101Z,13.40
2023-02-13T15:41:23.179Z,13.30
2023-02-13T15:44:21.145Z,13.30
2023-02-13T15:47:18.043Z,13.30
2023-02-13T15:50:19.406Z,13.20
2023-02-13T15:53:18.071Z,13.30
2023-02-13T15:56:15.836Z,13.20
2023-02-13T15:59:07.581Z,13.10
2023-02-13T16:02:20.707Z,13.00
2023-02-13T16:05:16.252Z,12.90
2023-02-13T16:08:30.332Z,12.80
2023-02-13T16:11:34.071Z,12.70
2023-02-13T16:14:27.057Z,12.60
2023-02-13T16:17:21.502Z,12.50
2023-02-13T16:20:21.832Z,12.40
2023-02-13T16:23:21.185Z,12.30
2023-02-13T16:26:16.779Z,12.20
2023-02-13T16:29:12.463Z,12.20
2023-02-13T16:32:11.459Z,12.10
2023-02-13T16:35:29.508Z,12.00
2023-02-13T16:38:28.081Z,11.80
2023-02-13T16:41:35.170Z,11.70
2023-02-13T16:44:30.296Z,11.50
2023-02-13T16:47:26.962Z,11.40
2023-02-13T16:50:19.239Z,11.30
2023-02-13T16:56:06.098Z,11.10
2023-02-13T16:59:12.920Z,11.10
2023-02-13T17:05:00.252Z,11.00
2023-02-13T17:07:53.383Z,11.00
2023-02-13T17:27:02.657Z,10.00
2023-02-13T17:29:54.470Z,9.90
2023-02-13T17:32:47.966Z,9.90
2023-02-13T17:35:41.885Z,9.90
2023-02-13T17:38:34.635Z,9.90
2023-02-13T17:41:25.986Z,9.90
2023-02-13T17:44:17.672Z,9.80
2023-02-13T17:53:42.988Z,9.50
2023-02-13T17:56:34.468Z,9.80
2023-02-13T17:59:27.528Z,9.60
2023-02-13T18:02:21.586Z,9.50
2023-02-13T18:05:13.694Z,9.40
2023-02-13T18:11:20.723Z,9.10
2023-02-13T18:14:12.477Z,9.00
2023-02-13T18:19:48.275Z,9.10
2023-02-13T18:22:43.022Z,9.10
2023-02-13T18:28:44.303Z,9.10
2023-02-13T18:34:16.592Z,9.10
2023-02-13T18:37:09.623Z,9.00
2023-02-13T18:40:02.916Z,9.10
2023-02-13T18:42:57.713Z,9.00
2023-02-13T18:46:15.706Z,8.90
2023-02-13T18:49:07.470Z,8.90
2023-02-13T18:51:59.358Z,8.80
2023-02-13T18:54:51.881Z,8.80
2023-02-13T18:57:45.294Z,8.80
2023-02-13T19:03:29.490Z,8.70
2023-02-13T19:06:23.854Z,8.70
2023-02-13T19:09:15.645Z,8.70
2023-02-13T19:12:07.993Z,8.70
2023-02-13T19:14:59.682Z,8.60
2023-02-13T19:17:51.044Z,8.50
2023-02-13T19:23:29.337Z,8.50
2023-02-13T19:58:27.746Z,7.90
2023-02-13T20:01:21.285Z,8.00
2023-02-13T20:04:13.176Z,7.90
2023-02-13T20:07:05.922Z,7.90
2023-02-13T20:09:57.675Z,8.00
2023-02-13T20:12:50.970Z,8.00
2023-02-13T20:18:28.515Z,7.90
2023-02-13T20:21:20.882Z,7.90
2023-02-13T20:24:14.368Z,7.80
2023-02-13T20:27:06.075Z,7.70
2023-02-13T20:32:54.571Z,7.60
2023-02-13T20:39:18.353Z,7.50
2023-02-13T20:42:09.800Z,7.40
2023-02-13T20:45:01.390Z,7.30
2023-02-13T20:47:54.530Z,7.30
2023-02-13T20:53:32.958Z,7.30
2023-02-13T20:59:09.172Z,7.20
2023-02-13T21:02:00.651Z,7.40
2023-02-13T21:04:52.947Z,7.40
2023-02-13T21:07:44.809Z,7.30
2023-02-13T21:13:19.636Z,7.10
2023-02-13T21:16:13.950Z,7.10
2023-02-13T21:19:07.738Z,7.10
2023-02-13T21:22:00.603Z,7.10
2023-02-13T21:24:53.749Z,7.10
2023-02-13T21:27:45.684Z,7.00
2023-02-13T21:30:39.969Z,6.90
2023-02-13T21:33:31.171Z,6.90
2023-02-13T21:36:22.704Z,6.80
2023-02-13T21:41:55.832Z,6.80
2023-02-13T21:44:49.407Z,6.80
2023-02-13T21:47:41.544Z,6.80
2023-02-13T21:50:34.928Z,6.80
2023-02-13T21:53:26.469Z,6.80
2023-02-13T21:56:21.958Z,6.70
2023-02-13T22:02:00.338Z,6.60
2023-02-13T22:04:52.142Z,6.60
2023-02-13T22:08:01.417Z,6.60
2023-02-13T22:10:57.494Z,6.60
2023-02-13T22:16:34.700Z,6.50
2023-02-13T22:19:26.717Z,6.50
2023-02-13T22:22:20.610Z,6.50
2023-02-13T22:28:05.279Z,6.40
2023-02-13T22:30:56.923Z,6.40
2023-02-13T22:34:02.884Z,6.40
2023-02-13T22:36:45.783Z,6.40
2023-02-13T22:39:39.868Z,6.30
2023-02-13T22:42:31.797Z,6.30
2023-02-13T22:48:03.119Z,6.30
2023-02-13T22:53:33.960Z,6.20
2023-02-13T22:56:25.834Z,6.20
2023-02-13T23:01:58.171Z,6.10
2023-02-13T23:04:50.856Z,6.10
2023-02-13T23:07:42.446Z,6.10
2023-02-13T23:10:33.858Z,6.00
2023-02-13T23:13:26.678Z,5.90
2023-02-13T23:16:18.391Z,5.90
2023-02-13T23:19:10.180Z,5.80
2023-02-13T23:22:02.427Z,5.80
2023-02-13T23:24:53.827Z,5.80
2023-02-13T23:27:46.341Z,5.70
2023-02-13T23:33:23.517Z,5.60
2023-02-13T23:36:14.910Z,5.90
2023-02-13T23:39:06.375Z,5.80
2023-02-13T23:41:57.545Z,5.80
2023-02-13T23:44:49.221Z,5.70
2023-02-13T23:47:40.849Z,5.70
2023-02-13T23:50:35.304Z,5.50
2023-02-13T23:53:27.156Z,5.50
2023-02-13T23:56:19.331Z,5.50
